Nearby METAR Reports

 

KSYN - Stanton, Minnesota, USA
Distance from station: NW 20mi, 33km
Updated: Wed, 02-Dec-2020 6:55am CST
Clear
Clear
 Wind from calm
Wind: Calm
Temperature: 14°F , -10°C
Dew Point: 10°F , -12°C
Humidity: 85%
Barometer: 30.32 inHg , 1026.8 hPa
Clouds: Clear
Visibility: 10 miles , 16 km
2020/12/02 12:55 KSYN 021255Z AUTO 00000KT 10SM CLR M10/M12 A3032 RMK AO2 T10971116
KTOB - Dodge Center, Minnesota, USA
Distance from station: SSW 21mi, 34km
Updated: Wed, 02-Dec-2020 6:55am CST
Clear
Clear
 Wind from SW
Wind: SW 5 mph , 7 km/h
Temperature: 18°F , -8°C
Wind Chill: 11°F , -12°C
Dew Point: 12°F , -11°C
Humidity: 79%
Barometer: 30.31 inHg , 1026.4 hPa
Clouds: Clear
Visibility: 10 miles , 16 km
2020/12/02 12:55 KTOB 021255Z AUTO 23004KT 10SM CLR M08/M11 A3031 RMK AO2 PWINO
K9MN - St Mary Hospital, Minnesota, USA
Distance from station: SSE 22mi, 35km
Updated: Wed, 02-Dec-2020 6:55am CST
Clear
Clear
 Wind from calm
Wind: Calm
Temperature: 21°F , -6°C
Dew Point: 16°F , -9°C
Humidity: 80%
Barometer: 30.33 inHg , 1027.1 hPa
Clouds: Clear
Visibility: 10 miles , 16 km
2020/12/02 12:55 K9MN 021255Z AUTO 00000KT 10SM CLR M06/M09 A3033 RMK AO1 T10631094
 
KRGK - Red Wing, Minnesota, USA
Distance from station: NNE 22mi, 35km
Updated: Wed, 02-Dec-2020 6:55am CST
Clear
Clear
 Wind from calm
Wind: Calm
Temperature: 12°F , -11°C
Dew Point: 10°F , -12°C
Humidity: 92%
Barometer: 30.33 inHg , 1027.1 hPa
Clouds: Clear
Visibility: 10 miles , 16 km
2020/12/02 12:55 KRGK 021255Z AUTO 00000KT 10SM CLR M11/M12 A3033 RMK AO2
KRST - Rochester, Minnesota, USA
Distance from station: SSE 29mi, 47km
Updated: Wed, 02-Dec-2020 6:54am CST
Clear
Clear
 Wind from SW
Wind: SW 5 mph , 7 km/h
Temperature: 19°F , -7°C
Wind Chill: 12°F , -11°C
Dew Point: 12°F , -11°C
Humidity: 73%
Barometer: 30.31 inHg , 1026.4 hPa
Clouds: Clear
Visibility: 10 miles , 16 km
2020/12/02 12:54 KRST 021254Z 22004KT 10SM CLR M07/M11 A3031 RMK AO2 SLP285 T10671106 $
KOWA - Owatonna, Minnesota, USA
Distance from station: WSW 31mi, 50km
Updated: Wed, 02-Dec-2020 6:53am CST
Clear
Clear
 Wind from calm
Wind: Calm
Temperature: 18°F , -8°C
Dew Point: 14°F , -10°C
Humidity: 86%
Barometer: 30.31 inHg , 1026.4 hPa
Clouds: Clear
Visibility: 10 miles , 16 km
2020/12/02 12:53 KOWA 021253Z AUTO 00000KT 10SM CLR M08/M10 A3031 RMK AO2
 
KFBL - Faribault Muni, Minnesota, USA
Distance from station: W 32mi, 51km
Updated: Wed, 02-Dec-2020 6:55am CST
Clear
Clear
 Wind from S
Wind: S 3 mph , 6 km/h
Temperature: 16°F , -9°C
Dew Point: 14°F , -10°C
Humidity: 93%
Barometer: 30.32 inHg , 1026.8 hPa
Clouds: Clear
Visibility: 10 miles , 16 km
2020/12/02 12:55 KFBL 021255Z AUTO 18003KT 10SM CLR M09/M10 A3032 RMK AO2
KSGS - South St Paul, Minnesota, USA
Distance from station: NNW 43mi, 69km
Updated: Wed, 02-Dec-2020 6:55am CST
Clear
Clear
 Wind from calm
Wind: Calm
Temperature: 16°F , -9°C
Dew Point: 14°F , -10°C
Humidity: 93%
Barometer: 30.32 inHg , 1026.8 hPa
Clouds: Clear
Visibility: 10 miles , 16 km
2020/12/02 12:55 KSGS 021255Z AUTO 00000KT 10SM CLR M09/M10 A3032 RMK AO2 T10861097 PWINO
KAUM - Austin Muni, Minnesota, USA
Distance from station: SSW 46mi, 73km
Updated: Wed, 02-Dec-2020 6:55am CST
Clear
Clear
 Wind from calm
Wind: Calm
Temperature: 16°F , -9°C
Dew Point: 12°F , -11°C
Humidity: 86%
Barometer: 30.32 inHg , 1026.8 hPa
Clouds: Clear
Visibility: 10 miles , 16 km
2020/12/02 12:55 KAUM 021255Z AUTO 00000KT 10SM CLR M09/M11 A3032 RMK AO2
 
KACQ - Waseca, Minnesota, USA
Distance from station: WSW 46mi, 75km
Updated: Wed, 02-Dec-2020 6:55am CST
Clear
Clear
 Wind from calm
Wind: Calm
Temperature: 18°F , -8°C
Dew Point: 14°F , -10°C
Humidity: 86%
Barometer: 30.34 inHg , 1027.4 hPa
Clouds: Clear
Visibility: 10 miles , 16 km
2020/12/02 12:55 KACQ 021255Z AUTO 00000KT 10SM CLR M08/M10 A3034 RMK AO2
KSTP - St. Paul, Minnesota, USA
Distance from station: NNW 47mi, 76km
Updated: Wed, 02-Dec-2020 6:53am CST
Clear
Clear
 Wind from calm
Wind: Calm
Temperature: 19°F , -7°C
Dew Point: 16°F , -9°C
Humidity: 86%
Barometer: 30.34 inHg , 1027.4 hPa
Clouds: Clear
Visibility: 7 miles , 11 km
2020/12/02 12:53 KSTP 021253Z AUTO 00000KT 7SM CLR M07/M09 A3034 RMK AO2 SLP281 I1000 T10721089
KMSP - Minneapolis, Minnesota, USA
Distance from station: NW 49mi, 78km
Updated: Wed, 02-Dec-2020 6:53am CST
Few Clouds
Few Clouds
 Wind from SW
Wind: SW 6 mph , 9 km/h
Temperature: 23°F , -5°C
Wind Chill: 16°F , -9°C
Dew Point: 18°F , -8°C
Humidity: 80%
Barometer: 30.32 inHg , 1026.8 hPa
Clouds: Few Clouds
Visibility: 10 miles , 16 km
Cloud details: Few Clouds 25000 ft
2020/12/02 12:53 KMSP 021253Z 22005KT 10SM FEW250 M05/M08 A3032 RMK AO2 SLP279 T10501083